sensor_id;sensor_type;location;lat;lon;timestamp;pressure;altitude;pressure_sealevel;temperature;humidity
23433;BME280;41331;45.412;10.992;2023-02-01T00:00:36;101474.72;;;2.89;96.40
23433;BME280;41331;45.412;10.992;2023-02-01T00:03:03;101479.78;;;2.85;96.42
23433;BME280;41331;45.412;10.992;2023-02-01T00:05:32;101480.53;;;2.81;96.78
23433;BME280;41331;45.412;10.992;2023-02-01T00:07:59;101465.88;;;2.67;97.13
23433;BME280;41331;45.412;10.992;2023-02-01T00:10:27;101462.81;;;2.58;97.38
23433;BME280;41331;45.412;10.992;2023-02-01T00:12:54;101463.41;;;2.65;98.53
23433;BME280;41331;45.412;10.992;2023-02-01T00:15:21;101459.25;;;2.52;97.76
23433;BME280;41331;45.412;10.992;2023-02-01T00:17:53;101471.06;;;2.51;97.97
23433;BME280;41331;45.412;10.992;2023-02-01T00:20:21;101471.94;;;2.57;98.63
23433;BME280;41331;45.412;10.992;2023-02-01T00:22:49;101459.41;;;2.46;97.59
23433;BME280;41331;45.412;10.992;2023-02-01T00:25:16;101463.41;;;2.43;98.38
23433;BME280;41331;45.412;10.992;2023-02-01T00:27:48;101465.63;;;2.46;98.41
23433;BME280;41331;45.412;10.992;2023-02-01T00:30:17;101458.66;;;2.50;97.31
23433;BME280;41331;45.412;10.992;2023-02-01T00:32:45;101463.94;;;2.62;96.65
23433;BME280;41331;45.412;10.992;2023-02-01T00:35:13;101465.22;;;2.59;96.64
23433;BME280;41331;45.412;10.992;2023-02-01T00:37:40;101465.50;;;2.58;96.23
23433;BME280;41331;45.412;10.992;2023-02-01T00:40:08;101466.25;;;2.53;95.96
23433;BME280;41331;45.412;10.992;2023-02-01T00:42:35;101469.66;;;2.49;95.41
23433;BME280;41331;45.412;10.992;2023-02-01T00:45:03;101467.47;;;2.46;95.28
23433;BME280;41331;45.412;10.992;2023-02-01T00:47:31;101450.13;;;2.53;94.49
23433;BME280;41331;45.412;10.992;2023-02-01T00:49:59;101457.91;;;2.55;94.53
23433;BME280;41331;45.412;10.992;2023-02-01T00:52:28;101459.47;;;2.51;92.87
23433;BME280;41331;45.412;10.992;2023-02-01T00:54:55;101461.00;;;2.42;92.64
23433;BME280;41331;45.412;10.992;2023-02-01T00:57:23;101468.41;;;2.34;93.04
23433;BME280;41331;45.412;10.992;2023-02-01T00:59:50;101458.47;;;2.35;90.33
23433;BME280;41331;45.412;10.992;2023-02-01T01:02:18;101460.41;;;2.40;92.26
23433;BME280;41331;45.412;10.992;2023-02-01T01:04:46;101466.59;;;2.40;91.81
23433;BME280;41331;45.412;10.992;2023-02-01T01:07:14;101461.81;;;2.42;91.86
23433;BME280;41331;45.412;10.992;2023-02-01T01:09:41;101463.69;;;2.42;91.15
23433;BME280;41331;45.412;10.992;2023-02-01T01:12:10;101463.69;;;2.42;90.83
23433;BME280;41331;45.412;10.992;2023-02-01T01:14:38;101458.03;;;2.43;89.88
23433;BME280;41331;45.412;10.992;2023-02-01T01:17:05;101460.13;;;2.36;89.36
23433;BME280;41331;45.412;10.992;2023-02-01T01:19:32;101452.28;;;2.34;89.46
23433;BME280;41331;45.412;10.992;2023-02-01T01:21:59;101446.69;;;2.36;89.29
23433;BME280;41331;45.412;10.992;2023-02-01T01:24:27;101449.53;;;2.29;89.34
23433;BME280;41331;45.412;10.992;2023-02-01T01:26:54;101452.22;;;2.29;88.52
23433;BME280;41331;45.412;10.992;2023-02-01T01:29:21;101454.97;;;2.34;90.42
23433;BME280;41331;45.412;10.992;2023-02-01T01:31:49;101454.41;;;2.32;91.49
23433;BME280;41331;45.412;10.992;2023-02-01T01:34:16;101450.66;;;2.33;89.88
23433;BME280;41331;45.412;10.992;2023-02-01T01:36:44;101443.66;;;2.32;90.46
23433;BME280;41331;45.412;10.992;2023-02-01T01:39:11;101437.41;;;2.27;90.98
23433;BME280;41331;45.412;10.992;2023-02-01T01:41:39;101442.78;;;2.27;91.39
23433;BME280;41331;45.412;10.992;2023-02-01T01:47:22;101448.66;;;2.24;95.12
23433;BME280;41331;45.412;10.992;2023-02-01T01:49:50;101447.66;;;2.30;98.54
23433;BME280;41331;45.412;10.992;2023-02-01T01:52:18;101437.16;;;2.28;100.00
23433;BME280;41331;45.412;10.992;2023-02-01T01:54:48;101436.97;;;2.35;100.00
23433;BME280;41331;45.412;10.992;2023-02-01T01:57:27;101445.28;;;2.33;100.00
23433;BME280;41331;45.412;10.992;2023-02-01T02:00:09;101439.38;;;2.31;100.00
23433;BME280;41331;45.412;10.992;2023-02-01T02:02:46;101426.84;;;2.20;100.00
23433;BME280;41331;45.412;10.992;2023-02-01T02:05:15;101433.09;;;2.26;100.00
23433;BME280;41331;45.412;10.992;2023-02-01T02:07:46;101424.34;;;2.36;100.00
23433;BME280;41331;45.412;10.992;2023-02-01T02:10:16;101422.19;;;2.32;100.00
23433;BME280;41331;45.412;10.992;2023-02-01T02:12:46;101414.38;;;2.31;100.00
23433;BME280;41331;45.412;10.992;2023-02-01T02:15:16;101408.50;;;2.34;100.00
23433;BME280;41331;45.412;10.992;2023-02-01T02:17:54;101419.34;;;2.22;100.00
23433;BME280;41331;45.412;10.992;2023-02-01T02:20:58;101419.38;;;2.05;100.00
23433;BME280;41331;45.412;10.992;2023-02-01T02:23:54;101414.25;;;2.04;100.00
23433;BME280;41331;45.412;10.992;2023-02-01T02:29:34;101419.09;;;2.02;100.00
23433;BME280;41331;45.412;10.992;2023-02-01T02:34:54;101412.66;;;2.03;100.00
23433;BME280;41331;45.412;10.992;2023-02-01T02:37:31;101412.66;;;2.03;100.00
23433;BME280;41331;45.412;10.992;2023-02-01T02:40:15;101418.69;;;1.93;100.00
23433;BME280;41331;45.412;10.992;2023-02-01T02:43:10;101415.34;;;2.03;100.00
23433;BME280;41331;45.412;10.992;2023-02-01T02:46:28;101417.59;;;2.11;100.00
23433;BME280;41331;45.412;10.992;2023-02-01T02:49:29;101415.94;;;1.88;100.00
23433;BME280;41331;45.412;10.992;2023-02-01T02:52:21;101421.91;;;1.95;100.00
23433;BME280;41331;45.412;10.992;2023-02-01T02:55:08;101421.19;;;2.00;100.00
23433;BME280;41331;45.412;10.992;2023-02-01T02:57:40;101423.31;;;1.98;100.00
23433;BME280;41331;45.412;10.992;2023-02-01T03:00:31;101420.31;;;1.94;100.00
23433;BME280;41331;45.412;10.992;2023-02-01T03:03:18;101423.25;;;1.93;100.00
23433;BME280;41331;45.412;10.992;2023-02-01T03:06:12;101419.75;;;1.92;100.00
23433;BME280;41331;45.412;10.992;2023-02-01T03:08:42;101426.91;;;1.87;100.00
23433;BME280;41331;45.412;10.992;2023-02-01T03:11:13;101424.94;;;1.99;100.00
23433;BME280;41331;45.412;10.992;2023-02-01T03:13:52;101428.75;;;2.03;100.00
23433;BME280;41331;45.412;10.992;2023-02-01T03:16:32;101422.75;;;1.79;100.00
23433;BME280;41331;45.412;10.992;2023-02-01T03:21:38;101419.50;;;1.60;100.00
23433;BME280;41331;45.412;10.992;2023-02-01T03:27:21;101429.88;;;1.51;100.00
23433;BME280;41331;45.412;10.992;2023-02-01T03:29:58;101430.41;;;1.53;100.00
23433;BME280;41331;45.412;10.992;2023-02-01T03:32:28;101431.22;;;1.54;100.00
23433;BME280;41331;45.412;10.992;2023-02-01T03:34:56;101425.88;;;1.71;100.00
23433;BME280;41331;45.412;10.992;2023-02-01T03:37:26;101429.28;;;1.66;100.00
23433;BME280;41331;45.412;10.992;2023-02-01T03:40:00;101431.25;;;1.71;100.00
23433;BME280;41331;45.412;10.992;2023-02-01T03:42:35;101429.44;;;1.76;100.00
23433;BME280;41331;45.412;10.992;2023-02-01T03:45:10;101429.44;;;1.76;100.00
23433;BME280;41331;45.412;10.992;2023-02-01T03:47:41;101439.28;;;1.54;100.00
23433;BME280;41331;45.412;10.992;2023-02-01T03:50:16;101437.22;;;1.44;100.00
23433;BME280;41331;45.412;10.992;2023-02-01T03:52:58;101443.03;;;1.53;100.00
23433;BME280;41331;45.412;10.992;2023-02-01T03:55:31;101433.09;;;1.53;100.00
23433;BME280;41331;45.412;10.992;2023-02-01T03:58:06;101420.03;;;1.57;100.00
23433;BME280;41331;45.412;10.992;2023-02-01T04:00:35;101431.91;;;1.61;100.00
23433;BME280;41331;45.412;10.992;2023-02-01T04:03:04;101438.38;;;1.65;100.00
23433;BME280;41331;45.412;10.992;2023-02-01T04:05:32;101439.28;;;1.71;100.00
23433;BME280;41331;45.412;10.992;2023-02-01T04:08:05;101435.22;;;1.68;100.00
23433;BME280;41331;45.412;10.992;2023-02-01T04:10:33;101437.00;;;1.79;100.00
23433;BME280;41331;45.412;10.992;2023-02-01T04:13:00;101445.84;;;1.80;100.00
23433;BME280;41331;45.412;10.992;2023-02-01T04:15:27;101441.00;;;1.77;100.00
23433;BME280;41331;45.412;10.992;2023-02-01T04:17:55;101438.53;;;1.75;100.00
23433;BME280;41331;45.412;10.992;2023-02-01T04:20:22;101441.97;;;1.71;100.00
23433;BME280;41331;45.412;10.992;2023-02-01T04:22:50;101445.69;;;1.70;100.00
23433;BME280;41331;45.412;10.992;2023-02-01T04:25:18;101448.72;;;1.73;100.00
23433;BME280;41331;45.412;10.992;2023-02-01T04:27:46;101445.22;;;1.73;100.00
23433;BME280;41331;45.412;10.992;2023-02-01T04:30:14;101441.81;;;1.77;100.00
23433;BME280;41331;45.412;10.992;2023-02-01T04:32:42;101441.13;;;1.70;100.00
23433;BME280;41331;45.412;10.992;2023-02-01T04:35:09;101453.38;;;1.61;100.00
23433;BME280;41331;45.412;10.992;2023-02-01T04:37:36;101455.97;;;1.73;99.48
23433;BME280;41331;45.412;10.992;2023-02-01T04:40:04;101452.22;;;1.74;99.61
23433;BME280;41331;45.412;10.992;2023-02-01T04:42:32;101453.81;;;1.75;99.49
23433;BME280;41331;45.412;10.992;2023-02-01T04:44:59;101451.06;;;1.70;100.00
23433;BME280;41331;45.412;10.992;2023-02-01T04:47:26;101459.19;;;1.75;99.94
23433;BME280;41331;45.412;10.992;2023-02-01T04:49:54;101447.81;;;1.68;100.00
23433;BME280;41331;45.412;10.992;2023-02-01T04:52:22;101447.50;;;1.64;100.00
23433;BME280;41331;45.412;10.992;2023-02-01T04:54:49;101461.00;;;1.69;100.00
23433;BME280;41331;45.412;10.992;2023-02-01T04:57:17;101436.63;;;1.71;100.00
23433;BME280;41331;45.412;10.992;2023-02-01T04:59:44;101455.22;;;1.77;100.00
23433;BME280;41331;45.412;10.992;2023-02-01T05:02:12;101448.25;;;1.76;100.00
23433;BME280;41331;45.412;10.992;2023-02-01T05:04:39;101446.03;;;1.57;100.00
23433;BME280;41331;45.412;10.992;2023-02-01T05:07:07;101446.59;;;1.42;100.00
23433;BME280;41331;45.412;10.992;2023-02-01T05:09:35;101439.19;;;1.49;100.00
23433;BME280;41331;45.412;10.992;2023-02-01T05:12:03;101445.72;;;1.53;100.00
23433;BME280;41331;45.412;10.992;2023-02-01T05:14:49;101454.16;;;1.45;100.00
23433;BME280;41331;45.412;10.992;2023-02-01T05:17:16;101452.44;;;1.39;100.00
23433;BME280;41331;45.412;10.992;2023-02-01T05:19:44;101446.97;;;1.34;100.00
23433;BME280;41331;45.412;10.992;2023-02-01T05:22:11;101459.69;;;1.38;100.00
23433;BME280;41331;45.412;10.992;2023-02-01T05:24:39;101450.19;;;1.47;100.00
23433;BME280;41331;45.412;10.992;2023-02-01T05:27:06;101456.44;;;1.53;100.00
23433;BME280;41331;45.412;10.992;2023-02-01T05:29:34;101450.09;;;1.42;100.00
23433;BME280;41331;45.412;10.992;2023-02-01T05:32:01;101442.38;;;1.46;100.00
23433;BME280;41331;45.412;10.992;2023-02-01T05:34:47;101446.81;;;1.40;100.00
23433;BME280;41331;45.412;10.992;2023-02-01T05:37:14;101442.22;;;1.52;100.00
23433;BME280;41331;45.412;10.992;2023-02-01T05:39:42;101443.28;;;1.51;100.00
23433;BME280;41331;45.412;10.992;2023-02-01T05:42:10;101451.63;;;1.38;100.00
23433;BME280;41331;45.412;10.992;2023-02-01T05:44:37;101447.19;;;1.15;100.00
23433;BME280;41331;45.412;10.992;2023-02-01T05:47:05;101450.72;;;1.16;100.00
23433;BME280;41331;45.412;10.992;2023-02-01T05:49:32;101451.91;;;1.08;100.00
23433;BME280;41331;45.412;10.992;2023-02-01T05:52:00;101462.38;;;1.10;100.00
23433;BME280;41331;45.412;10.992;2023-02-01T05:54:27;101459.94;;;1.08;100.00
23433;BME280;41331;45.412;10.992;2023-02-01T05:56:55;101451.09;;;1.08;100.00
23433;BME280;41331;45.412;10.992;2023-02-01T05:59:22;101454.56;;;1.08;100.00
23433;BME280;41331;45.412;10.992;2023-02-01T06:01:50;101454.56;;;1.08;100.00
23433;BME280;41331;45.412;10.992;2023-02-01T06:04:18;101464.84;;;1.11;100.00
23433;BME280;41331;45.412;10.992;2023-02-01T06:06:45;101464.03;;;1.11;100.00
23433;BME280;41331;45.412;10.992;2023-02-01T06:09:13;101455.09;;;1.22;100.00
23433;BME280;41331;45.412;10.992;2023-02-01T06:11:40;101463.16;;;1.22;100.00
23433;BME280;41331;45.412;10.992;2023-02-01T06:14:08;101460.69;;;1.20;100.00
23433;BME280;41331;45.412;10.992;2023-02-01T06:16:35;101456.81;;;1.45;100.00
23433;BME280;41331;45.412;10.992;2023-02-01T06:19:03;101449.91;;;1.32;100.00
23433;BME280;41331;45.412;10.992;2023-02-01T06:21:30;101459.66;;;1.21;100.00
23433;BME280;41331;45.412;10.992;2023-02-01T06:23:58;101454.91;;;1.12;100.00
23433;BME280;41331;45.412;10.992;2023-02-01T06:26:26;101440.44;;;1.13;100.00
23433;BME280;41331;45.412;10.992;2023-02-01T06:28:56;101443.69;;;1.15;100.00
23433;BME280;41331;45.412;10.992;2023-02-01T06:31:23;101456.38;;;1.19;100.00
23433;BME280;41331;45.412;10.992;2023-02-01T06:33:52;101434.75;;;1.09;100.00
23433;BME280;41331;45.412;10.992;2023-02-01T06:36:20;101444.56;;;1.03;100.00
23433;BME280;41331;45.412;10.992;2023-02-01T06:38:48;101447.88;;;0.94;100.00
23433;BME280;41331;45.412;10.992;2023-02-01T06:41:16;101444.34;;;0.76;100.00
23433;BME280;41331;45.412;10.992;2023-02-01T06:43:44;101453.53;;;0.81;100.00
23433;BME280;41331;45.412;10.992;2023-02-01T06:46:13;101456.69;;;1.06;100.00
23433;BME280;41331;45.412;10.992;2023-02-01T06:48:41;101457.91;;;1.15;100.00
23433;BME280;41331;45.412;10.992;2023-02-01T06:51:38;101458.00;;;1.20;100.00
23433;BME280;41331;45.412;10.992;2023-02-01T06:54:05;101473.16;;;1.26;100.00
23433;BME280;41331;45.412;10.992;2023-02-01T06:56:33;101473.16;;;1.26;100.00
23433;BME280;41331;45.412;10.992;2023-02-01T06:59:04;101471.94;;;1.34;100.00
23433;BME280;41331;45.412;10.992;2023-02-01T07:01:31;101475.28;;;1.41;100.00
23433;BME280;41331;45.412;10.992;2023-02-01T07:03:59;101473.25;;;1.48;100.00
23433;BME280;41331;45.412;10.992;2023-02-01T07:06:27;101470.09;;;1.51;100.00
23433;BME280;41331;45.412;10.992;2023-02-01T07:08:54;101478.88;;;1.64;100.00
23433;BME280;41331;45.412;10.992;2023-02-01T07:11:23;101486.28;;;1.73;99.17
23433;BME280;41331;45.412;10.992;2023-02-01T07:13:52;101484.25;;;1.80;98.48
23433;BME280;41331;45.412;10.992;2023-02-01T07:16:20;101485.22;;;2.08;96.93
23433;BME280;41331;45.412;10.992;2023-02-01T07:18:49;101485.91;;;2.37;94.23
23433;BME280;41331;45.412;10.992;2023-02-01T07:21:18;101479.81;;;2.42;93.79
23433;BME280;41331;45.412;10.992;2023-02-01T07:23:46;101468.31;;;2.46;92.08
23433;BME280;41331;45.412;10.992;2023-02-01T07:26:14;101479.00;;;2.63;92.78
23433;BME280;41331;45.412;10.992;2023-02-01T07:28:43;101482.75;;;2.84;91.58
23433;BME280;41331;45.412;10.992;2023-02-01T07:31:13;101456.38;;;3.08;89.37
23433;BME280;41331;45.412;10.992;2023-02-01T07:33:42;101473.69;;;3.76;86.31
23433;BME280;41331;45.412;10.992;2023-02-01T07:36:12;101478.91;;;3.88;85.31
23433;BME280;41331;45.412;10.992;2023-02-01T07:38:40;101473.25;;;3.89;84.71
23433;BME280;41331;45.412;10.992;2023-02-01T07:41:08;101476.75;;;3.90;85.59
23433;BME280;41331;45.412;10.992;2023-02-01T07:43:36;101482.84;;;4.12;84.76
23433;BME280;41331;45.412;10.992;2023-02-01T07:46:04;101481.19;;;4.54;83.51
23433;BME280;41331;45.412;10.992;2023-02-01T07:48:33;101486.72;;;4.79;82.10
23433;BME280;41331;45.412;10.992;2023-02-01T07:51:11;101477.81;;;4.84;81.51
23433;BME280;41331;45.412;10.992;2023-02-01T07:53:40;101496.78;;;5.09;80.28
23433;BME280;41331;45.412;10.992;2023-02-01T07:56:18;101491.19;;;5.41;78.52
23433;BME280;41331;45.412;10.992;2023-02-01T07:58:50;101504.75;;;5.87;76.02
23433;BME280;41331;45.412;10.992;2023-02-01T08:01:21;101500.94;;;5.63;75.94
23433;BME280;41331;45.412;10.992;2023-02-01T08:03:56;101500.13;;;5.57;75.53
23433;BME280;41331;45.412;10.992;2023-02-01T08:06:27;101500.63;;;5.24;75.83
23433;BME280;41331;45.412;10.992;2023-02-01T08:08:55;101503.53;;;5.17;73.90
23433;BME280;41331;45.412;10.992;2023-02-01T08:11:24;101513.09;;;5.55;73.22
23433;BME280;41331;45.412;10.992;2023-02-01T08:13:52;101500.38;;;5.45;72.40
23433;BME280;41331;45.412;10.992;2023-02-01T08:16:20;101510.97;;;5.78;72.64
23433;BME280;41331;45.412;10.992;2023-02-01T08:18:48;101506.59;;;5.61;73.46
23433;BME280;41331;45.412;10.992;2023-02-01T08:21:22;101497.69;;;6.17;71.79
23433;BME280;41331;45.412;10.992;2023-02-01T08:23:50;101499.13;;;6.89;68.74
23433;BME280;41331;45.412;10.992;2023-02-01T08:26:21;101490.47;;;7.37;67.71
23433;BME280;41331;45.412;10.992;2023-02-01T08:28:52;101487.94;;;7.85;65.89
23433;BME280;41331;45.412;10.992;2023-02-01T08:31:21;101484.50;;;8.03;65.07
23433;BME280;41331;45.412;10.992;2023-02-01T08:33:52;101483.34;;;7.85;66.10
23433;BME280;41331;45.412;10.992;2023-02-01T08:36:22;101487.00;;;8.28;64.93
23433;BME280;41331;45.412;10.992;2023-02-01T08:38:50;101488.75;;;8.67;64.17
23433;BME280;41331;45.412;10.992;2023-02-01T08:41:21;101480.34;;;8.69;63.58
23433;BME280;41331;45.412;10.992;2023-02-01T08:43:49;101502.13;;;8.05;64.48
23433;BME280;41331;45.412;10.992;2023-02-01T08:46:17;101496.63;;;7.82;65.76
23433;BME280;41331;45.412;10.992;2023-02-01T08:48:46;101497.41;;;7.09;68.05
23433;BME280;41331;45.412;10.992;2023-02-01T08:51:16;101490.34;;;7.08;68.12
23433;BME280;41331;45.412;10.992;2023-02-01T08:53:45;101483.56;;;6.56;69.26
23433;BME280;41331;45.412;10.992;2023-02-01T08:56:15;101494.94;;;7.12;69.11
23433;BME280;41331;45.412;10.992;2023-02-01T08:58:43;101492.47;;;6.61;69.87
23433;BME280;41331;45.412;10.992;2023-02-01T09:01:13;101496.44;;;6.84;69.36
23433;BME280;41331;45.412;10.992;2023-02-01T09:03:41;101492.03;;;7.04;69.79
23433;BME280;41331;45.412;10.992;2023-02-01T09:06:11;101504.78;;;7.82;67.03
23433;BME280;41331;45.412;10.992;2023-02-01T09:08:39;101491.84;;;7.73;66.64
23433;BME280;41331;45.412;10.992;2023-02-01T09:11:10;101491.63;;;7.99;65.72
23433;BME280;41331;45.412;10.992;2023-02-01T09:13:38;101483.00;;;8.93;63.06
23433;BME280;41331;45.412;10.992;2023-02-01T09:16:06;101477.63;;;9.82;60.51
23433;BME280;41331;45.412;10.992;2023-02-01T09:18:34;101482.69;;;10.49;58.20
23433;BME280;41331;45.412;10.992;2023-02-01T09:21:08;101468.97;;;11.31;55.15
23433;BME280;41331;45.412;10.992;2023-02-01T09:23:35;101472.47;;;12.22;53.15
23433;BME280;41331;45.412;10.992;2023-02-01T09:26:04;101466.44;;;12.42;51.73
23433;BME280;41331;45.412;10.992;2023-02-01T09:28:32;101460.22;;;13.51;49.88
23433;BME280;41331;45.412;10.992;2023-02-01T09:31:01;101456.81;;;14.65;47.43
23433;BME280;41331;45.412;10.992;2023-02-01T09:33:29;101462.97;;;14.15;47.15
23433;BME280;41331;45.412;10.992;2023-02-01T09:35:58;101455.63;;;13.89;48.68
23433;BME280;41331;45.412;10.992;2023-02-01T09:38:26;101470.84;;;13.43;49.03
23433;BME280;41331;45.412;10.992;2023-02-01T09:40:55;101476.72;;;14.44;48.53
23433;BME280;41331;45.412;10.992;2023-02-01T09:43:42;101479.03;;;13.26;49.71
23433;BME280;41331;45.412;10.992;2023-02-01T09:48:49;101471.06;;;14.11;48.00
23433;BME280;41331;45.412;10.992;2023-02-01T09:51:23;101468.88;;;14.72;46.59
23433;BME280;41331;45.412;10.992;2023-02-01T09:54:03;101474.16;;;13.75;47.90
23433;BME280;41331;45.412;10.992;2023-02-01T09:56:40;101473.41;;;13.31;50.64
23433;BME280;41331;45.412;10.992;2023-02-01T09:59:29;101474.03;;;12.54;51.54
23433;BME280;41331;45.412;10.992;2023-02-01T10:02:02;101477.16;;;12.30;53.42
23433;BME280;41331;45.412;10.992;2023-02-01T10:04:31;101485.06;;;12.09;53.94
23433;BME280;41331;45.412;10.992;2023-02-01T10:07:09;101476.97;;;12.75;53.23
23433;BME280;41331;45.412;10.992;2023-02-01T10:09:58;101482.06;;;11.88;56.77
23433;BME280;41331;45.412;10.992;2023-02-01T10:18:22;101478.03;;;10.63;60.17
23433;BME280;41331;45.412;10.992;2023-02-01T10:27:07;101472.25;;;11.42;58.34
23433;BME280;41331;45.412;10.992;2023-02-01T10:29:44;101472.28;;;11.28;58.99
23433;BME280;41331;45.412;10.992;2023-02-01T10:32:16;101452.47;;;11.81;57.93
23433;BME280;41331;45.412;10.992;2023-02-01T10:34:47;101447.41;;;12.19;55.93
23433;BME280;41331;45.412;10.992;2023-02-01T10:37:24;101450.25;;;11.61;58.08
23433;BME280;41331;45.412;10.992;2023-02-01T10:39:56;101457.72;;;11.10;60.98
23433;BME280;41331;45.412;10.992;2023-02-01T10:42:27;101459.50;;;11.51;58.81
23433;BME280;41331;45.412;10.992;2023-02-01T10:45:17;101476.91;;;10.92;60.26
23433;BME280;41331;45.412;10.992;2023-02-01T10:47:46;101465.34;;;10.58;62.34
23433;BME280;41331;45.412;10.992;2023-02-01T10:50:34;101463.94;;;10.33;62.88
23433;BME280;41331;45.412;10.992;2023-02-01T10:55:41;101462.50;;;10.91;60.28
23433;BME280;41331;45.412;10.992;2023-02-01T10:58:28;101466.59;;;10.06;63.14
23433;BME280;41331;45.412;10.992;2023-02-01T11:00:59;101454.09;;;10.19;62.90
23433;BME280;41331;45.412;10.992;2023-02-01T11:03:31;101465.44;;;10.26;63.29
23433;BME280;41331;45.412;10.992;2023-02-01T11:06:01;101446.41;;;10.26;64.59
23433;BME280;41331;45.412;10.992;2023-02-01T11:08:30;101456.38;;;10.30;63.95
23433;BME280;41331;45.412;10.992;2023-02-01T11:11:00;101450.25;;;10.25;64.86
23433;BME280;41331;45.412;10.992;2023-02-01T11:13:30;101450.13;;;11.21;61.44
23433;BME280;41331;45.412;10.992;2023-02-01T11:16:01;101446.16;;;10.91;61.93
23433;BME280;41331;45.412;10.992;2023-02-01T11:18:37;101456.91;;;11.46;59.70
23433;BME280;41331;45.412;10.992;2023-02-01T11:21:06;101449.03;;;11.08;61.29
23433;BME280;41331;45.412;10.992;2023-02-01T11:23:40;101458.97;;;10.91;62.15
23433;BME280;41331;45.412;10.992;2023-02-01T11:26:20;101456.16;;;11.18;61.56
23433;BME280;41331;45.412;10.992;2023-02-01T11:28:55;101456.06;;;10.73;63.57
23433;BME280;41331;45.412;10.992;2023-02-01T11:31:26;101444.88;;;10.47;64.37
23433;BME280;41331;45.412;10.992;2023-02-01T11:34:00;101457.06;;;10.63;63.66
23433;BME280;41331;45.412;10.992;2023-02-01T11:36:32;101452.16;;;10.24;64.29
23433;BME280;41331;45.412;10.992;2023-02-01T11:39:17;101446.50;;;11.12;62.27
23433;BME280;41331;45.412;10.992;2023-02-01T11:42:05;101444.38;;;10.73;62.70
23433;BME280;41331;45.412;10.992;2023-02-01T11:44:36;101440.16;;;10.53;63.47
23433;BME280;41331;45.412;10.992;2023-02-01T11:47:27;101442.25;;;10.42;64.10
23433;BME280;41331;45.412;10.992;2023-02-01T11:50:05;101433.91;;;10.25;66.56
23433;BME280;41331;45.412;10.992;2023-02-01T11:53:18;101434.00;;;10.33;65.90
23433;BME280;41331;45.412;10.992;2023-02-01T11:56:05;101418.66;;;10.24;66.13
23433;BME280;41331;45.412;10.992;2023-02-01T12:04:18;101394.50;;;10.50;64.20
23433;BME280;41331;45.412;10.992;2023-02-01T12:06:54;101382.59;;;10.46;64.35
23433;BME280;41331;45.412;10.992;2023-02-01T12:12:12;101389.91;;;10.73;66.73
23433;BME280;41331;45.412;10.992;2023-02-01T12:20:31;101391.50;;;10.74;65.05
23433;BME280;41331;45.412;10.992;2023-02-01T12:26:18;101369.38;;;10.89;65.60
23433;BME280;41331;45.412;10.992;2023-02-01T12:40:19;101367.19;;;10.41;66.88
23433;BME280;41331;45.412;10.992;2023-02-01T12:43:03;101356.59;;;10.40;69.15
23433;BME280;41331;45.412;10.992;2023-02-01T12:45:46;101346.00;;;10.52;68.69
23433;BME280;41331;45.412;10.992;2023-02-01T12:50:53;101330.22;;;10.26;70.39
23433;BME280;41331;45.412;10.992;2023-02-01T12:56:06;101360.19;;;10.49;68.69
23433;BME280;41331;45.412;10.992;2023-02-01T12:58:44;101363.56;;;10.46;69.99
23433;BME280;41331;45.412;10.992;2023-02-01T13:01:32;101346.88;;;10.61;69.17
23433;BME280;41331;45.412;10.992;2023-02-01T13:04:17;101323.66;;;10.27;69.16
23433;BME280;41331;45.412;10.992;2023-02-01T13:07:10;101330.19;;;10.40;69.35
23433;BME280;41331;45.412;10.992;2023-02-01T13:09:47;101326.63;;;10.53;69.06
23433;BME280;41331;45.412;10.992;2023-02-01T13:12:54;101313.66;;;10.73;67.10
23433;BME280;41331;45.412;10.992;2023-02-01T13:15:58;101310.78;;;10.92;66.88
23433;BME280;41331;45.412;10.992;2023-02-01T13:18:35;101296.59;;;10.81;67.24
23433;BME280;41331;45.412;10.992;2023-02-01T13:21:13;101293.19;;;10.39;69.87
23433;BME280;41331;45.412;10.992;2023-02-01T13:23:45;101293.31;;;10.34;69.36
23433;BME280;41331;45.412;10.992;2023-02-01T13:26:13;101278.50;;;10.62;67.86
23433;BME280;41331;45.412;10.992;2023-02-01T13:28:45;101290.28;;;10.22;70.54
23433;BME280;41331;45.412;10.992;2023-02-01T13:31:24;101291.22;;;10.31;71.92
23433;BME280;41331;45.412;10.992;2023-02-01T13:40:45;101286.38;;;10.28;71.61
23433;BME280;41331;45.412;10.992;2023-02-01T13:43:27;101273.38;;;10.25;71.63
23433;BME280;41331;45.412;10.992;2023-02-01T13:45:57;101279.03;;;10.15;71.32
23433;BME280;41331;45.412;10.992;2023-02-01T13:48:36;101287.69;;;10.03;73.31
23433;BME280;41331;45.412;10.992;2023-02-01T13:51:06;101283.94;;;10.12;72.71
23433;BME280;41331;45.412;10.992;2023-02-01T13:53:36;101269.03;;;10.24;73.24
23433;BME280;41331;45.412;10.992;2023-02-01T13:56:22;101281.22;;;10.40;71.67
23433;BME280;41331;45.412;10.992;2023-02-01T13:58:51;101277.88;;;10.43;71.35
23433;BME280;41331;45.412;10.992;2023-02-01T14:06:58;101262.88;;;10.32;72.60
23433;BME280;41331;45.412;10.992;2023-02-01T14:09:36;101269.13;;;10.19;74.45
23433;BME280;41331;45.412;10.992;2023-02-01T14:15:43;101260.03;;;10.23;75.15
23433;BME280;41331;45.412;10.992;2023-02-01T14:21:32;101257.22;;;10.42;74.03
23433;BME280;41331;45.412;10.992;2023-02-01T14:24:48;101263.88;;;10.36;74.75
23433;BME280;41331;45.412;10.992;2023-02-01T14:26:51;101263.19;;;10.17;76.08
23433;BME280;41331;45.412;10.992;2023-02-01T14:29:34;101256.75;;;10.12;76.58
23433;BME280;41331;45.412;10.992;2023-02-01T14:32:19;101246.72;;;9.99;77.28
23433;BME280;41331;45.412;10.992;2023-02-01T14:42:24;101226.09;;;10.34;76.22